M I D A S
Marine Information and Data Acquisition System
Tripno 1864 of the Zeeleeuw from 2010-04-23 06:30:26 to 2010-04-23 15:38:00
Back to CruiseResearch ActivitiesStationsMapUnderway DataData graphs

EquipmentUnitsComment
TimeDGPSUTC
LatitudeDGPSDM.mWGS84
LongitudeDGPSDM.mWGS84
HeadingGyrodeg 
SOGDGPSknotsSpeed over ground
COGDGPSdegCourse over ground
DepthEcho soundermeters200 kHz
Missing or incorrect values are displayed as -999
Navigation data collected by the RV Zeeleeuw from 2010-04-23 06:21:22 to 2010-04-23 16:16:10
Time Latitude Longitude Heading SOG COG Depth
2010-04-23 06:22:31 51°13.677 2°55.9 107 3.2 289 -999
2010-04-23 06:23:31 51°13.689 2°55.814 95.7 3.4 278 -999
2010-04-23 06:24:31 51°13.692 2°55.776 59.8 0.4 8 -999
2010-04-23 06:25:30 51°13.689 2°55.763 32.5 0.2 329 5.8
2010-04-23 06:26:31 51°13.729 2°55.735 328 4.6 327 -999
2010-04-23 06:27:31 51°13.81 2°55.657 335.9 6.1 335 -999
2010-04-23 06:28:31 51°13.911 2°55.594 341.9 6.8 341 -999
2010-04-23 06:29:30 51°14.018 2°55.532 338 7.6 334 13.4
2010-04-23 06:30:31 51°14.154 2°55.415 333 10.4 330 -999
2010-04-23 06:31:30 51°14.312 2°55.257 328.2 12.2 324 13.3
2010-04-23 06:32:29 51°14.486 2°55.061 324.8 13.6 325 13.6
2010-04-23 06:33:29 51°14.668 2°54.838 317.3 14.1 320 14.5
2010-04-23 06:34:28 51°14.842 2°54.6 317.1 14 320 13.9
2010-04-23 06:35:27 51°15.029 2°54.385 325.2 14.1 328 12.4
2010-04-23 06:36:27 51°15.245 2°54.227 333.8 14.3 335 12.7
2010-04-23 06:37:27 51°15.455 2°54.056 331.5 14.2 335 12.5
2010-04-23 06:38:27 51°15.679 2°53.934 341.5 14.4 344 13
2010-04-23 06:39:27 51°15.907 2°53.823 340.5 14.4 343 13.8
2010-04-23 06:40:27 51°16.127 2°53.685 334.3 14.2 337 14
2010-04-23 06:41:27 51°16.334 2°53.517 328.9 14.1 331 14.3
2010-04-23 06:42:27 51°16.539 2°53.34 328.9 14.1 332 14.3
2010-04-23 06:43:27 51°16.746 2°53.168 329.1 14 331 13.6
2010-04-23 06:44:27 51°16.948 2°52.988 325.2 13.8 328 11
2010-04-23 06:45:27 51°17.145 2°52.789 328.1 14.1 330 12.7
2010-04-23 06:46:27 51°17.37 2°52.668 345.1 14.5 349 12.7
2010-04-23 06:47:27 51°17.609 2°52.607 351.3 14.6 354 12.7
2010-04-23 06:48:27 51°17.85 2°52.557 350.2 14.6 352 12.9
2010-04-23 06:49:27 51°18.092 2°52.502 350.1 14.7 352 13.2
2010-04-23 06:50:27 51°18.332 2°52.445 349.7 14.6 352 13.4
2010-04-23 06:51:27 51°18.571 2°52.387 349.9 14.6 351 14.1
2010-04-23 06:52:27 51°18.81 2°52.329 349.8 14.5 352 15
2010-04-23 06:53:27 51°19.048 2°52.271 349.3 14.5 351 16.4
2010-04-23 06:54:27 51°19.286 2°52.209 349.6 14.5 351 17.5
2010-04-23 06:55:27 51°19.527 2°52.15 349.4 14.7 351 18.2
2010-04-23 06:56:27 51°19.763 2°52.058 336.8 14.6 340 18.5
2010-04-23 06:57:27 51°19.977 2°51.887 327.4 14.3 329 18
2010-04-23 06:58:27 51°20.176 2°51.68 321.3 14 321 16
2010-04-23 06:59:27 51°20.351 2°51.436 316.5 14 318 15.9
2010-04-23 07:00:27 51°20.53 2°51.199 320.9 14 322 18.8
2010-04-23 07:01:27 51°20.72 2°50.977 321.7 14.1 324 20.4
2010-04-23 07:02:27 51°20.909 2°50.754 321.8 14.2 323 24
2010-04-23 07:03:27 51°21.103 2°50.535 322.2 14.3 325 25.8
2010-04-23 07:04:24 51°21.286 2°50.324 321.8 14.2 325 26
2010-04-23 07:07:35 51°21.909 2°49.629 322.3 14.4 325 25.9
2010-04-23 07:08:35 51°22.096 2°49.395 313.2 14.1 317 25.6
2010-04-23 07:09:35 51°22.26 2°49.128 310.7 14.1 314 24.6
2010-04-23 07:10:35 51°22.423 2°48.863 311.6 13.9 315 24.7
2010-04-23 07:11:35 51°22.587 2°48.602 310.1 13.7 311 18.4
2010-04-23 07:12:35 51°22.723 2°48.313 300.2 13.5 303 19.4
2010-04-23 07:13:35 51°22.851 2°48.014 301 13.5 305 21
2010-04-23 07:14:35 51°22.979 2°47.715 300.1 13.6 305 21.5
2010-04-23 07:15:35 51°23.109 2°47.418 300.9 13.7 306 21.5
2010-04-23 07:16:35 51°23.24 2°47.12 301.3 13.7 305 23.3
2010-04-23 07:17:35 51°23.368 2°46.813 300.8 13.9 303 27.1
2010-04-23 07:18:35 51°23.493 2°46.5 298.6 13.9 300 28
2010-04-23 07:19:35 51°23.603 2°46.175 295.1 13.9 297 28
2010-04-23 07:20:35 51°23.713 2°45.848 294.7 13.9 299 29.8
2010-04-23 07:21:35 51°23.821 2°45.519 295.3 13.8 297 29.8
2010-04-23 07:22:35 51°23.93 2°45.194 295.2 13.8 299 29.2
2010-04-23 07:23:35 51°24.04 2°44.873 295.1 13.8 299 29.1
2010-04-23 07:24:35 51°24.148 2°44.55 295 13.7 298 28.7
2010-04-23 07:25:35 51°24.237 2°44.299 294.6 9 302 27.6
2010-04-23 07:26:35 51°24.308 2°44.123 295.5 7.8 305 27.9
2010-04-23 07:27:35 51°24.379 2°43.951 294.7 7.2 303 28.4
2010-04-23 07:28:35 51°24.441 2°43.832 299.1 5.4 312 28.1
2010-04-23 07:29:35 51°24.504 2°43.723 306.5 5.3 322 27.8
2010-04-23 07:30:35 51°24.57 2°43.673 327.1 3.1 354 27.2
2010-04-23 07:31:35 51°24.612 2°43.688 356 2.3 21 25.9
2010-04-23 07:32:35 51°24.645 2°43.71 348.6 1.9 26 26
2010-04-23 07:33:35 51°24.672 2°43.728 333.6 1.7 24 25
2010-04-23 07:34:35 51°24.696 2°43.746 326.3 1.5 25 25
2010-04-23 07:35:35 51°24.719 2°43.764 327.4 1.5 30 22.7
2010-04-23 07:36:37 51°24.726 2°43.802 319.6 2.4 105 27.2
2010-04-23 07:37:38 51°24.729 2°43.849 287.9 1.1 1 26.8
2010-04-23 07:38:38 51°24.733 2°43.825 238.9 1.7 250 26.7
2010-04-23 07:39:37 51°24.704 2°43.781 221.3 2.7 220 25
2010-04-23 07:40:37 51°24.688 2°43.737 241.6 1.4 248 25.5
2010-04-23 07:41:35 51°24.675 2°43.716 224.1 0.9 222 23
2010-04-23 07:42:35 51°24.671 2°43.7 245.5 0.5 289 24.6
2010-04-23 07:43:35 51°24.678 2°43.698 244.9 0.5 7 25.7
2010-04-23 07:44:35 51°24.686 2°43.703 239.9 0.6 17 26.4
2010-04-23 07:45:35 51°24.694 2°43.712 236.7 0.5 21 26.2
2010-04-23 07:46:35 51°24.694 2°43.712 219.3 0.4 182 26.4
2010-04-23 07:47:35 51°24.683 2°43.708 221.6 0.8 221 26.6
2010-04-23 07:48:35 51°24.678 2°43.696 234.7 0.4 256 25.6
2010-04-23 07:49:35 51°24.671 2°43.694 209.4 0.7 169 24.6
2010-04-23 07:50:35 51°24.669 2°43.708 199.4 0.7 75 24.1
2010-04-23 07:51:35 51°24.673 2°43.73 187.4 0.9 75 25.8
2010-04-23 07:52:35 51°24.678 2°43.756 181.5 1 71 24.8
2010-04-23 07:53:35 51°24.685 2°43.784 177.9 1.1 69 23.2
2010-04-23 07:54:35 51°24.693 2°43.811 173.1 1.2 65 27.5
2010-04-23 07:55:35 51°24.687 2°43.834 200.9 0.9 159 27.5
2010-04-23 07:56:35 51°24.681 2°43.816 253.5 1.3 277 27.8
2010-04-23 07:57:35 51°24.677 2°43.782 228.8 1.5 232 23.3
2010-04-23 07:58:35 51°24.669 2°43.748 253.4 1.4 277 26.1
2010-04-23 07:59:35 51°24.67 2°43.716 242.1 0.9 270 23
2010-04-23 08:00:35 51°24.672 2°43.699 240.7 0.4 323 25.2
2010-04-23 08:01:35 51°24.678 2°43.7 230.3 0.3 13 25.9
2010-04-23 08:02:35 51°24.683 2°43.705 226 0.2 41 26.4
2010-04-23 08:03:34 51°24.674 2°43.693 222.2 1.4 215 24.7
2010-04-23 08:04:35 51°24.661 2°43.687 207.7 0.5 146 23.1
2010-04-23 08:05:35 51°24.661 2°43.702 199.1 0.7 78 26.1
2010-04-23 08:06:35 51°24.663 2°43.724 195.9 0.8 75 27
2010-04-23 08:07:35 51°24.667 2°43.748 188.9 1 77 25.7
2010-04-23 08:08:35 51°24.673 2°43.771 183.3 1 67 24.2
2010-04-23 08:09:35 51°24.693 2°43.8 196.8 1.2 45 4.8
2010-04-23 08:10:38 51°24.703 2°43.821 213.7 0.7 60 4.7
2010-04-23 08:11:37 51°24.705 2°43.829 223.7 -999 338 27.2
2010-04-23 08:12:37 51°24.7 2°43.818 231 1.1 230 27.3
2010-04-23 08:13:36 51°24.686 2°43.791 231.1 1.4 238 25.9
2010-04-23 08:14:36 51°24.683 2°43.751 244.4 1.6 261 24.6
2010-04-23 08:15:35 51°24.681 2°43.71 251.9 1.4 276 26.2
2010-04-23 08:16:35 51°24.676 2°43.687 219.9 0.6 205 24.5
2010-04-23 08:17:35 51°24.673 2°43.691 218 0.4 79 24.2
2010-04-23 08:18:35 51°24.675 2°43.7 219.9 0.4 66 25.7
2010-04-23 08:19:35 51°24.679 2°43.712 215.3 0.6 62 25.8
2010-04-23 08:20:35 51°24.684 2°43.728 212 0.7 70 25.6
2010-04-23 08:21:35 51°24.69 2°43.746 209.5 0.8 65 24.9
2010-04-23 08:22:35 51°24.695 2°43.764 207.5 0.7 83 23.9
2010-04-23 08:23:35 51°24.674 2°43.797 154.1 3.6 121 25.5
2010-04-23 08:24:35 51°24.672 2°43.953 90.1 9.2 82 24.7
2010-04-23 08:25:35 51°24.712 2°44.279 83.6 14.7 80 25.3
2010-04-23 08:26:35 51°24.748 2°44.676 86.9 15.1 85 29.8
2010-04-23 08:27:35 51°24.721 2°45.068 109 14.7 104 29.1
2010-04-23 08:28:34 51°24.64 2°45.426 118.7 14.5 116 28.6
2010-04-23 08:29:35 51°24.54 2°45.779 119.5 14.2 114 27.1
2010-04-23 08:30:34 51°24.452 2°46.104 119.8 10.7 113 29.7
2010-04-23 08:31:35 51°24.41 2°46.299 124.6 5.4 111 29.7
2010-04-23 08:32:35 51°24.375 2°46.372 172.8 2.4 146 29.1
2010-04-23 08:33:35 51°24.352 2°46.38 213.5 0.9 201 28.9
2010-04-23 08:34:35 51°24.349 2°46.364 239.6 0.7 276 29.2
2010-04-23 08:35:35 51°24.353 2°46.342 243.6 1.5 271 29.9
2010-04-23 08:36:35 51°24.354 2°46.248 267.7 4.8 281 30.1
2010-04-23 08:37:34 51°24.401 2°46.148 308.4 4.5 327 29.5
2010-04-23 08:38:35 51°24.467 2°46.109 329.4 4 349 28.3
2010-04-23 08:39:35 51°24.532 2°46.104 350 3.9 3 27.8
2010-04-23 08:40:35 51°24.595 2°46.122 5.9 3.9 16 27.3
2010-04-23 08:41:35 51°24.656 2°46.16 23.1 3.9 27 27.2
2010-04-23 08:42:35 51°24.708 2°46.221 48.2 3.8 45 27.2
2010-04-23 08:43:35 51°24.743 2°46.304 71.9 4 63 27
2010-04-23 08:44:34 51°24.777 2°46.403 68 4.5 60 27.2
2010-04-23 08:45:35 51°24.817 2°46.501 63.3 4.2 54 27.3
2010-04-23 08:46:34 51°24.856 2°46.587 66.6 3.8 56 27.1
2010-04-23 08:47:35 51°24.884 2°46.673 84.2 3.4 68 27.7
2010-04-23 08:48:35 51°24.9 2°46.763 92.2 3.7 75 27.4
2010-04-23 08:49:35 51°24.916 2°46.862 89.8 3.9 74 27.6
2010-04-23 08:50:35 51°24.934 2°46.962 89.4 3.9 74 28.9
2010-04-23 08:51:35 51°24.951 2°47.063 89.8 3.9 76 29.4
2010-04-23 08:52:35 51°24.968 2°47.166 89.1 4 77 29.6
2010-04-23 08:53:35 51°24.986 2°47.268 87.9 4 73 30.3
2010-04-23 08:54:35 51°25.005 2°47.37 86.8 4 74 31.3
2010-04-23 08:55:35 51°25.027 2°47.471 81.7 4 68 31
2010-04-23 08:56:35 51°25.054 2°47.57 77 4.1 66 30.8
2010-04-23 08:57:35 51°25.082 2°47.67 78 4.1 66 30.3
2010-04-23 08:58:35 51°25.109 2°47.772 77.4 4.2 67 30.4
2010-04-23 08:59:35 51°25.136 2°47.873 78.6 4 69 30.1
2010-04-23 09:00:35 51°25.161 2°47.972 77.9 3.9 67 31.3
2010-04-23 09:01:35 51°25.186 2°48.07 78.5 4 69 31.6
2010-04-23 09:02:35 51°25.21 2°48.168 78.4 3.9 68 31.6
2010-04-23 09:03:35 51°25.236 2°48.266 78 4 68 31.9
2010-04-23 09:04:35 51°25.261 2°48.364 77.9 4 67 31.7
2010-04-23 09:05:35 51°25.283 2°48.463 86.1 3.9 75 31.7
2010-04-23 09:06:35 51°25.296 2°48.563 96.4 3.8 81 31.2
2010-04-23 09:07:35 51°25.305 2°48.664 96.4 3.9 80 30.2
2010-04-23 09:08:35 51°25.314 2°48.765 95.1 3.8 80 28.6
2010-04-23 09:09:35 51°25.324 2°48.866 95.8 3.8 83 26.7
2010-04-23 09:10:35 51°25.333 2°48.968 94.7 3.8 82 26.3
2010-04-23 09:11:34 51°25.342 2°49.067 98.2 3.8 84 25.6
2010-04-23 09:12:35 51°25.342 2°49.168 109 3.6 94 25.5
2010-04-23 09:13:34 51°25.341 2°49.262 107.4 3.6 89 25
2010-04-23 09:14:35 51°25.34 2°49.359 107.2 3.4 93 24.8
2010-04-23 09:15:34 51°25.339 2°49.451 107.4 3.6 90 24.3
2010-04-23 09:16:34 51°25.333 2°49.544 122.4 3.5 103 24.5
2010-04-23 09:17:35 51°25.315 2°49.631 137.3 3.3 114 24.6
2010-04-23 09:18:34 51°25.288 2°49.704 153.9 3.1 130 24.7
2010-04-23 09:19:35 51°25.254 2°49.744 196.5 1.9 168 24.7
2010-04-23 09:20:34 51°25.235 2°49.735 233.6 1.2 234 24.9
2010-04-23 09:21:35 51°25.243 2°49.69 283.5 2.6 305 24.5
2010-04-23 09:22:34 51°25.275 2°49.61 290 6 300 24.3
2010-04-23 09:23:35 51°25.325 2°49.427 276.2 5.6 282 24.4
2010-04-23 09:24:34 51°25.32 2°49.335 242.8 2.3 248 24.5
2010-04-23 09:25:34 51°25.303 2°49.301 223.6 1.2 214 24.7
2010-04-23 09:26:34 51°25.287 2°49.296 209.9 0.9 171 24.7
2010-04-23 09:27:34 51°25.255 2°49.282 221.1 4 218 24.6
2010-04-23 09:28:35 51°25.204 2°49.114 245.8 9.5 250 24.7
2010-04-23 09:29:34 51°25.115 2°48.871 238.4 11.2 238 26
2010-04-23 09:30:35 51°25.02 2°48.614 239.6 9.6 241 25.9
2010-04-23 09:31:34 51°24.974 2°48.471 242.6 4.1 251 27.1
2010-04-23 09:32:35 51°24.972 2°48.437 234.1 0.2 304 27.3
2010-04-23 09:33:34 51°24.974 2°48.438 222.9 0.2 43 27.5
2010-04-23 09:34:34 51°24.976 2°48.445 220.1 0.4 61 27.3
2010-04-23 09:35:35 51°24.979 2°48.455 218.3 0.4 60 27.1
2010-04-23 09:36:34 51°24.982 2°48.467 215.7 0.5 59 27.2
2010-04-23 09:37:35 51°24.985 2°48.481 210.7 0.6 69 28.6
2010-04-23 09:38:34 51°24.988 2°48.496 206.1 0.6 75 28.9
2010-04-23 09:39:35 51°24.991 2°48.513 199.7 0.7 75 28.6
2010-04-23 09:40:34 51°24.995 2°48.53 192.3 0.7 67 28.4
2010-04-23 09:41:35 51°24.999 2°48.55 184.4 0.8 69 27.9
2010-04-23 09:42:34 51°25.004 2°48.569 174 0.9 65 27.7
2010-04-23 09:43:34 51°25.011 2°48.593 164.3 0.9 64 27.1
2010-04-23 09:44:35 51°25.018 2°48.617 156.2 0.9 65 25.6
2010-04-23 09:45:34 51°25.025 2°48.641 149.5 1 62 27
2010-04-23 09:46:35 51°25.032 2°48.665 142.7 1 61 27.8
2010-04-23 09:47:34 51°25.04 2°48.689 138 1 61 27.3
2010-04-23 09:48:35 51°25.048 2°48.711 138.1 0.9 58 27.2
2010-04-23 09:49:34 51°25.056 2°48.732 140.4 0.9 57 27.1
2010-04-23 09:50:35 51°25.066 2°48.753 143.6 1 53 26.8
2010-04-23 09:51:34 51°25.075 2°48.772 147.4 0.9 49 26.9
2010-04-23 09:52:34 51°25.084 2°48.791 149.8 0.9 49 26.7
2010-04-23 09:53:34 51°25.094 2°48.81 151.5 1 51 26.5
2010-04-23 09:54:34 51°25.104 2°48.828 153.2 0.8 50 26.4
2010-04-23 09:55:35 51°25.113 2°48.846 155 0.9 51 26.1
2010-04-23 09:56:34 51°25.123 2°48.863 155.1 0.8 51 25.6
2010-04-23 09:57:35 51°25.133 2°48.88 155.6 0.9 43 25.6
2010-04-23 09:58:34 51°25.142 2°48.896 155.5 0.8 44 25.6
2010-04-23 09:59:35 51°25.152 2°48.912 153.9 0.8 46 25.3
2010-04-23 10:00:34 51°25.169 2°48.92 158.7 1.6 5 25.3
2010-04-23 10:01:35 51°25.197 2°48.929 182.7 0.8 60 25.3
2010-04-23 10:02:34 51°25.184 2°48.892 254.5 4.7 263 25.6
2010-04-23 10:03:34 51°25.238 2°48.726 315.7 9.3 324 28.6
2010-04-23 10:04:35 51°25.426 2°48.641 352.4 13.2 355 28.6
2010-04-23 10:05:34 51°25.654 2°48.704 18.1 14.7 19 25.7
2010-04-23 10:06:35 51°25.886 2°48.85 21.7 14.7 21 25.2
2010-04-23 10:07:34 51°26.11 2°48.989 20.3 14.7 21 24.5
2010-04-23 10:08:34 51°26.34 2°49.126 19.8 14.8 20 24.7
2010-04-23 10:09:34 51°26.563 2°49.292 29.7 14.8 28 22
2010-04-23 10:10:34 51°26.777 2°49.488 30.2 14.7 30 17.6
2010-04-23 10:11:34 51°26.989 2°49.683 29.8 14.7 29 23.1
2010-04-23 10:12:34 51°27.202 2°49.878 30.2 14.7 30 24.1
2010-04-23 10:13:35 51°27.419 2°50.075 29.2 14.7 29 25.6
2010-04-23 10:14:34 51°27.628 2°50.265 29.1 14.7 29 26.3
2010-04-23 10:15:54 51°27.911 2°50.522 29.8 14.6 29 29.3
2010-04-23 10:17:47 51°28.314 2°50.881 29.5 14.7 29 27.8
2010-04-23 10:18:46 51°28.526 2°51.069 29.1 14.7 29 28.6
2010-04-23 10:19:47 51°28.744 2°51.263 29.3 14.8 29 29.1
2010-04-23 10:20:47 51°28.959 2°51.454 29.3 14.7 28 30.2
2010-04-23 10:21:46 51°29.171 2°51.64 29.3 14.8 28 30.6
2010-04-23 10:22:47 51°29.391 2°51.828 29.6 14.8 28 31.4
2010-04-23 10:23:45 51°29.6 2°52.008 29.2 14.8 28 31.1
2010-04-23 10:24:46 51°29.819 2°52.197 29.8 14.7 29 31.4
2010-04-23 10:25:45 51°30.031 2°52.376 27.1 14.6 26 29.9
2010-04-23 10:26:47 51°30.264 2°52.526 21.1 14.6 21 29.7
2010-04-23 10:27:46 51°30.488 2°52.655 20 14.5 19 27.7
2010-04-23 10:28:47 51°30.721 2°52.787 20.8 14.6 19 19.7
2010-04-23 10:29:47 51°30.951 2°52.914 21.1 14.6 20 20.8
2010-04-23 10:30:46 51°31.176 2°53.041 21.1 14.6 19 21.5
2010-04-23 10:31:47 51°31.411 2°53.173 21.4 14.7 19 19.9
2010-04-23 10:32:45 51°31.633 2°53.3 21.5 14.7 20 21.4
2010-04-23 10:33:46 51°31.865 2°53.434 21.3 14.5 20 22.5
2010-04-23 10:34:47 51°32.096 2°53.567 21.2 14.5 20 23
2010-04-23 10:35:47 51°32.324 2°53.697 21.5 14.6 20 24
2010-04-23 10:36:46 51°32.547 2°53.826 21.5 14.5 20 25.3
2010-04-23 10:37:47 51°32.772 2°53.983 25.7 14.6 25 26.8
2010-04-23 10:38:47 51°32.984 2°54.167 33.3 14.5 31 25.6
2010-04-23 10:39:46 51°33.167 2°54.401 48.7 14.4 48 27.8
2010-04-23 10:40:47 51°33.325 2°54.698 52.3 14.3 50 26.6
2010-04-23 10:41:45 51°33.382 2°55.028 99.9 13.2 103 28.1
2010-04-23 10:42:46 51°33.298 2°55.369 118.7 13.5 118 26
2010-04-23 10:43:47 51°33.206 2°55.673 121.4 9.3 113 27.2
2010-04-23 10:44:47 51°33.189 2°55.846 102.1 4.5 94 26.8
2010-04-23 10:45:46 51°33.176 2°55.918 137.2 2 114 24.5
2010-04-23 10:46:47 51°33.163 2°55.959 142.8 1.5 120 25.7
2010-04-23 10:47:47 51°33.153 2°55.99 141.4 1 120 26.1
2010-04-23 10:48:46 51°33.147 2°56.015 139.7 1 104 24.5
2010-04-23 10:49:46 51°33.145 2°56.038 133.9 0.8 98 25.3
2010-04-23 10:50:46 51°33.145 2°56.058 131.1 0.7 84 24.7
2010-04-23 10:51:46 51°33.148 2°56.075 127.7 0.7 69 25.2
2010-04-23 10:52:46 51°33.151 2°56.089 124.5 0.3 91 26.6
2010-04-23 10:53:50 51°33.156 2°56.103 123.2 0.5 61 -999
2010-04-23 10:54:50 51°33.161 2°56.115 123.9 0.5 45 -999
2010-04-23 10:55:49 51°33.167 2°56.121 126.8 0.5 15 26.9
2010-04-23 10:56:49 51°33.174 2°56.12 136 0.5 358 26.9
2010-04-23 10:57:48 51°33.183 2°56.116 146.7 0.7 339 27
2010-04-23 10:58:47 51°33.192 2°56.113 156.1 0.5 354 26.9
2010-04-23 10:59:46 51°33.2 2°56.11 160 0.4 343 27.3
2010-04-23 11:00:46 51°33.207 2°56.107 160.4 0.4 349 27
2010-04-23 11:01:46 51°33.213 2°56.104 161.3 0.4 340 27.2
2010-04-23 11:02:46 51°33.219 2°56.102 160.6 0.3 331 27.6
2010-04-23 11:03:47 51°33.224 2°56.1 158.7 0.3 358 27.2
2010-04-23 11:04:46 51°33.228 2°56.099 155.6 0.2 340 27.7
2010-04-23 11:05:47 51°33.233 2°56.098 152.8 0.3 -999 27.8
2010-04-23 11:06:46 51°33.236 2°56.098 149.7 0.2 3 27.4
2010-04-23 11:07:47 51°33.239 2°56.098 146.1 0.1 328 28
2010-04-23 11:08:46 51°33.242 2°56.099 143.8 0.2 19 27.6
2010-04-23 11:09:46 51°33.244 2°56.1 142.5 0.2 -999 27.7
2010-04-23 11:10:46 51°33.247 2°56.1 142.5 0.1 337 28
2010-04-23 11:11:46 51°33.25 2°56.1 140.2 0.2 355 27.8
2010-04-23 11:12:46 51°33.253 2°56.1 137.3 0.1 322 27.6
2010-04-23 11:13:46 51°33.255 2°56.099 135.8 0.2 344 28
2010-04-23 11:14:47 51°33.257 2°56.098 134.7 0.1 339 28
2010-04-23 11:15:46 51°33.259 2°56.097 134.7 0.1 340 27.8
2010-04-23 11:16:47 51°33.261 2°56.096 134.4 0.2 345 27.9
2010-04-23 11:17:46 51°33.263 2°56.094 132.6 0.2 341 27.8
2010-04-23 11:18:46 51°33.266 2°56.092 132.2 0.1 310 28.1
2010-04-23 11:19:46 51°33.267 2°56.09 132.2 0.1 311 28.2
2010-04-23 11:20:46 51°33.269 2°56.087 132.9 0.1 339 28.2
2010-04-23 11:21:46 51°33.27 2°56.085 135 0.2 265 28.1
2010-04-23 11:22:46 51°33.272 2°56.082 135.9 0.1 304 27.9
2010-04-23 11:23:47 51°33.273 2°56.079 134.8 0.2 288 28.1
2010-04-23 11:24:46 51°33.275 2°56.078 132.2 0.1 322 28.1
2010-04-23 11:25:47 51°33.277 2°56.075 129.5 0.1 289 28
2010-04-23 11:26:46 51°33.278 2°56.071 129.1 0.1 307 28
2010-04-23 11:27:47 51°33.28 2°56.069 130 0.2 268 28.1
2010-04-23 11:28:46 51°33.282 2°56.066 129.4 0.1 315 27.9
2010-04-23 11:29:46 51°33.283 2°56.063 129.6 0.2 338 27.8
2010-04-23 11:30:47 51°33.284 2°56.06 130.7 0.2 284 28.1
2010-04-23 11:31:46 51°33.285 2°56.056 130.7 0.2 288 28.2
2010-04-23 11:32:47 51°33.287 2°56.052 130.7 0.2 353 27.9
2010-04-23 11:33:46 51°33.288 2°56.049 129.3 0.2 311 28.1
2010-04-23 11:34:46 51°33.289 2°56.046 127.7 0.2 277 28.2
2010-04-23 11:35:46 51°33.29 2°56.043 127.8 0.3 250 28.2
2010-04-23 11:36:49 51°33.292 2°56.039 127.1 0.2 270 28.2
2010-04-23 11:37:47 51°33.293 2°56.036 126.3 0.2 298 28.2
2010-04-23 11:38:47 51°33.295 2°56.032 126.2 0.2 309 28.2
2010-04-23 11:39:47 51°33.297 2°56.027 125.7 0.2 310 27.9
2010-04-23 11:40:46 51°33.297 2°56.022 125.2 0.2 293 28.2
2010-04-23 11:41:46 51°33.299 2°56.018 126.1 0.3 271 28.2
2010-04-23 11:42:46 51°33.301 2°56.012 128.5 0.2 284 27.7
2010-04-23 11:43:47 51°33.302 2°56.007 130.1 0.2 277 28
2010-04-23 11:44:46 51°33.302 2°56.001 131 0.2 267 27.6
2010-04-23 11:45:47 51°33.302 2°55.995 131.5 0.3 265 27.9
2010-04-23 11:46:46 51°33.303 2°55.989 132.5 0.2 293 27.9
2010-04-23 11:47:46 51°33.304 2°55.983 133.2 0.3 263 27.8
2010-04-23 11:48:47 51°33.303 2°55.977 134.3 0.2 273 27.5
2010-04-23 11:49:46 51°33.303 2°55.971 134.3 0.3 257 27.6
2010-04-23 11:50:46 51°33.303 2°55.965 135.1 0.3 263 28
2010-04-23 11:51:46 51°33.29 2°55.971 153.1 2.4 159 27.6
2010-04-23 11:52:46 51°33.251 2°55.984 170.8 2.6 172 26.7
2010-04-23 11:53:46 51°33.203 2°55.987 184.3 3 186 25.1
2010-04-23 11:54:46 51°33.162 2°55.969 200.4 2.2 203 24.5
2010-04-23 11:55:46 51°33.135 2°55.939 215 1.8 226 24.8
2010-04-23 11:56:46 51°33.117 2°55.908 222.3 1.3 230 26.5
2010-04-23 11:57:46 51°33.114 2°55.892 215.6 0.5 302 26.4
2010-04-23 11:58:46 51°33.121 2°55.888 221.7 0.5 352 26.6
2010-04-23 11:59:46 51°33.13 2°55.887 234.1 0.4 352 26.7
2010-04-23 12:00:46 51°33.135 2°55.885 244.3 0.2 353 26.7
2010-04-23 12:01:46 51°33.139 2°55.883 249.9 0.2 323 26.7
2010-04-23 12:02:46 51°33.141 2°55.879 255.2 0.2 283 26.7
2010-04-23 12:03:46 51°33.142 2°55.874 261.4 0.2 250 26.7
2010-04-23 12:04:46 51°33.142 2°55.867 269.1 0.3 286 26.3
2010-04-23 12:05:46 51°33.143 2°55.86 278.6 0.3 266 26.4
2010-04-23 12:06:46 51°33.142 2°55.853 285.3 0.2 274 26.7
2010-04-23 12:07:46 51°33.141 2°55.845 291.4 0.3 259 26.2
2010-04-23 12:08:46 51°33.14 2°55.838 295.4 0.2 268 26
2010-04-23 12:09:46 51°33.137 2°55.832 296.6 0.3 234 24.9
2010-04-23 12:10:46 51°33.134 2°55.825 296.7 0.3 242 25.2
2010-04-23 12:11:46 51°33.132 2°55.818 296.3 0.2 249 24.9
2010-04-23 12:12:46 51°33.128 2°55.811 295.7 0.4 229 25.8
2010-04-23 12:13:46 51°33.125 2°55.804 295 0.3 230 25.9
2010-04-23 12:14:46 51°33.121 2°55.798 294.8 0.4 219 26.1
2010-04-23 12:15:46 51°33.117 2°55.792 293.9 0.4 212 25.5
2010-04-23 12:16:46 51°33.111 2°55.786 292.1 0.4 212 25.2
2010-04-23 12:17:46 51°33.107 2°55.78 290.1 0.5 209 25.2
2010-04-23 12:18:46 51°33.101 2°55.775 288.2 0.4 206 25.2
2010-04-23 12:19:46 51°33.094 2°55.779 284.9 1.6 117 24.6
2010-04-23 12:20:50 51°33.09 2°55.855 263.8 3.5 83 -999
2010-04-23 12:21:50 51°33.106 2°55.959 251.8 4.3 70 -999
2010-04-23 12:22:50 51°33.137 2°56.063 240.1 4.3 59 -999
2010-04-23 12:23:50 51°33.174 2°56.149 236.1 3.1 53 4.8
2010-04-23 12:24:49 51°33.192 2°56.19 240.2 0.2 11 26.1
2010-04-23 12:25:49 51°33.192 2°56.186 266.4 0.2 235 26.5
2010-04-23 12:26:48 51°33.189 2°56.182 278.1 0.3 215 26.1
2010-04-23 12:27:47 51°33.185 2°56.177 284.3 0.3 231 26
2010-04-23 12:28:46 51°33.181 2°56.171 292.5 0.4 222 26.1
2010-04-23 12:29:46 51°33.175 2°56.165 299.9 0.5 216 26.5
2010-04-23 12:30:46 51°33.168 2°56.158 304.7 0.5 211 25.9
2010-04-23 12:31:46 51°33.16 2°56.15 307.7 0.5 211 26.1
2010-04-23 12:32:46 51°33.151 2°56.141 307.5 0.6 209 25.5
2010-04-23 12:33:46 51°33.142 2°56.133 303.8 0.6 211 25.9
2010-04-23 12:34:46 51°33.134 2°56.124 299.1 0.7 209 24.9
2010-04-23 12:35:46 51°33.124 2°56.115 296.3 0.6 212 24.6
2010-04-23 12:36:46 51°33.115 2°56.105 294.8 0.6 209 23.2
2010-04-23 12:37:46 51°33.106 2°56.096 294 0.6 213 24.3
2010-04-23 12:38:46 51°33.096 2°56.087 293.8 0.7 207 25.6
2010-04-23 12:39:46 51°33.086 2°56.078 291.2 0.7 212 25.7
2010-04-23 12:40:46 51°33.077 2°56.069 290.2 0.7 213 25.4
2010-04-23 12:41:46 51°33.067 2°56.059 290 0.8 208 24.3
2010-04-23 12:42:46 51°33.056 2°56.049 289.8 0.7 212 22.1
2010-04-23 12:43:46 51°33.045 2°56.04 291 0.8 210 25.5
2010-04-23 12:44:46 51°33.035 2°56.031 291.6 0.8 207 25.5
2010-04-23 12:45:46 51°33.023 2°56.022 290.1 0.7 208 25.4
2010-04-23 12:46:46 51°33.012 2°56.012 288.1 0.7 208 24.6
2010-04-23 12:47:47 51°32.997 2°56.02 279.8 1.4 128 -999
2010-04-23 12:48:50 51°32.989 2°56.069 260.2 2.2 87 -999
2010-04-23 12:49:50 51°32.997 2°56.136 245 2.8 71 -999
2010-04-23 12:50:50 51°33.02 2°56.204 233.5 2.9 56 24.8
2010-04-23 12:51:50 51°33.051 2°56.264 223.2 2.9 46 -999
2010-04-23 12:52:50 51°33.082 2°56.308 220.5 1.9 40 24.4
2010-04-23 12:53:49 51°33.083 2°56.304 245 1.6 237 24.8
2010-04-23 12:54:49 51°33.075 2°56.266 273.7 1.3 254 23.7
2010-04-23 12:55:48 51°33.068 2°56.236 279.5 1.1 250 24.8
2010-04-23 12:56:47 51°33.061 2°56.21 283.4 1 246 25.5
2010-04-23 12:57:47 51°33.055 2°56.186 286.8 1 241 25.6
2010-04-23 12:58:46 51°33.048 2°56.166 289 0.8 242 25.3
2010-04-23 12:59:46 51°33.039 2°56.145 292 0.8 234 24.2
2010-04-23 13:00:46 51°33.031 2°56.126 296.2 0.9 233 23.4
2010-04-23 13:01:47 51°33.022 2°56.108 300.3 0.9 227 25
2010-04-23 13:02:46 51°33.012 2°56.091 303.9 0.9 227 25.9
2010-04-23 13:03:47 51°33.002 2°56.072 308.6 1 231 25.3
2010-04-23 13:04:47 51°32.995 2°56.049 319.6 0.9 252 24.3
2010-04-23 13:05:46 51°32.995 2°56.023 335.5 1 286 24.2
2010-04-23 13:06:47 51°33.004 2°56 359.1 1 318 24
2010-04-23 13:07:46 51°33.021 2°55.986 0.4 1.3 336 25
2010-04-23 13:08:46 51°33.043 2°55.965 346.1 1.7 325 25.7
2010-04-23 13:09:46 51°33.067 2°55.937 351.9 1.8 332 25.6
2010-04-23 13:10:47 51°33.092 2°55.929 19.7 1.4 10 25.8
2010-04-23 13:11:46 51°33.117 2°55.93 3.3 1.7 342 25.5
2010-04-23 13:12:47 51°33.141 2°55.898 327.4 2.5 308 25.6
2010-04-23 13:13:47 51°33.167 2°55.812 301.1 4.7 291 25.8
2010-04-23 13:14:46 51°33.197 2°55.674 297.4 6.5 289 26.5
2010-04-23 13:15:47 51°33.246 2°55.485 299.1 6.3 294 26
2010-04-23 13:16:46 51°33.294 2°55.401 346.5 3.2 336 25.4
2010-04-23 13:17:46 51°33.333 2°55.399 30.9 1.9 24 26.7
2010-04-23 13:18:46 51°33.353 2°55.435 59.6 1.9 61 25.8
2010-04-23 13:19:47 51°33.373 2°55.482 49.4 2.4 50 26.9
2010-04-23 13:20:46 51°33.404 2°55.532 45.1 2.9 42 24.8
2010-04-23 13:21:47 51°33.441 2°55.591 47.9 4.2 47 24.2
2010-04-23 13:22:47 51°33.513 2°55.72 49.4 7.7 47 26.1
2010-04-23 13:23:46 51°33.602 2°55.877 49.6 8.3 48 27.4
2010-04-23 13:24:47 51°33.666 2°56.074 73.4 8.3 76 27.5
2010-04-23 13:25:46 51°33.677 2°56.294 88.3 8.5 93 28.2
2010-04-23 13:26:46 51°33.663 2°56.523 92.7 8.6 95 28.3
2010-04-23 13:27:46 51°33.65 2°56.744 90.1 6.8 93 28
2010-04-23 13:28:47 51°33.616 2°56.871 123.5 4.6 131 27
2010-04-23 13:29:46 51°33.549 2°56.916 177.9 5.1 189 25.8
2010-04-23 13:30:47 51°33.49 2°56.829 245.4 4 236 27.1
2010-04-23 13:31:47 51°33.466 2°56.749 258.5 2.9 247 24.9
2010-04-23 13:32:46 51°33.451 2°56.688 266.7 2.3 246 27.3
2010-04-23 13:33:47 51°33.44 2°56.636 273 1.8 252 27.1
2010-04-23 13:34:46 51°33.429 2°56.595 272 1.6 248 26.1
2010-04-23 13:35:46 51°33.416 2°56.558 271.6 1.5 240 26.3
2010-04-23 13:36:46 51°33.402 2°56.528 274.1 1.3 229 26
2010-04-23 13:37:47 51°33.387 2°56.506 280.2 1.1 220 26.1
2010-04-23 13:38:46 51°33.372 2°56.491 280.1 1 203 25.6
2010-04-23 13:39:47 51°33.354 2°56.483 269.3 1 190 27
2010-04-23 13:40:46 51°33.339 2°56.48 256.6 0.8 185 26.2
2010-04-23 13:41:46 51°33.326 2°56.479 247.8 0.7 184 26
2010-04-23 13:42:46 51°33.314 2°56.479 242.7 0.8 174 26.3
2010-04-23 13:43:46 51°33.304 2°56.481 238.8 0.7 173 26.8
2010-04-23 13:44:46 51°33.294 2°56.482 234.1 0.5 175 26.4
2010-04-23 13:45:46 51°33.285 2°56.483 228.6 0.4 184 26.5
2010-04-23 13:46:47 51°33.277 2°56.482 223.4 0.4 189 26.4
2010-04-23 13:47:46 51°33.27 2°56.48 218.5 0.5 202 25.3
2010-04-23 13:48:47 51°33.263 2°56.475 214.2 0.4 199 24.9
2010-04-23 13:49:45 51°33.257 2°56.469 210.6 0.4 218 24.9
2010-04-23 13:50:46 51°33.252 2°56.461 208.4 0.5 235 25.5
2010-04-23 13:51:45 51°33.246 2°56.452 212 0.5 217 26
2010-04-23 13:52:45 51°33.24 2°56.444 217.1 0.5 220 26.1
2010-04-23 13:53:46 51°33.233 2°56.437 219.9 0.5 214 25.5
2010-04-23 13:54:45 51°33.226 2°56.431 222.2 0.5 221 25.7
2010-04-23 13:55:47 51°33.204 2°56.387 256.7 3.2 246 27.3
2010-04-23 13:56:46 51°33.194 2°56.29 280 4.1 265 25.9
2010-04-23 13:57:47 51°33.188 2°56.175 279.2 4.2 263 25.7
2010-04-23 13:58:45 51°33.18 2°56.078 281.5 3.5 263 25.8
2010-04-23 13:59:46 51°33.172 2°55.99 282.8 3.1 260 24.7
2010-04-23 14:00:47 51°33.161 2°55.912 281.6 2.9 257 23
2010-04-23 14:01:45 51°33.161 2°55.807 296.2 5.4 283 25.1
2010-04-23 14:02:46 51°33.218 2°55.613 309 11.1 301 26.4
2010-04-23 14:03:45 51°33.332 2°55.32 308.9 13.8 301 24.4
2010-04-23 14:04:47 51°33.414 2°54.958 284.5 14.3 281 25.6
2010-04-23 14:05:46 51°33.418 2°54.58 266.5 14.5 260 26.6
2010-04-23 14:06:46 51°33.308 2°54.245 225.6 14.6 225 24.9
2010-04-23 14:07:46 51°33.109 2°54.024 205.3 14.7 207 25.8
2010-04-23 14:08:46 51°32.883 2°53.876 198.7 14.6 201 24.1
2010-04-23 14:09:46 51°32.652 2°53.747 192.6 14.7 191 23.2
2010-04-23 14:10:46 51°32.413 2°53.675 186.9 14.3 188 22.1
2010-04-23 14:11:46 51°32.172 2°53.606 187.1 14.6 190 21.2
2010-04-23 14:12:46 51°31.929 2°53.534 187.8 15.1 190 22.3
2010-04-23 14:13:46 51°31.684 2°53.462 188 14.8 190 18.5
2010-04-23 14:14:46 51°31.439 2°53.39 188.2 15 190 20.6
2010-04-23 14:15:46 51°31.193 2°53.318 188.3 14.8 191 20.4
2010-04-23 14:16:46 51°30.947 2°53.244 188.3 15.1 191 17.4
2010-04-23 14:17:46 51°30.7 2°53.169 187.9 15.3 191 21.2
2010-04-23 14:18:46 51°30.455 2°53.093 188.8 14.8 191 26.9
2010-04-23 14:19:46 51°30.211 2°53.013 188 14.7 192 30.8
2010-04-23 14:20:46 51°29.97 2°52.933 187.9 14.6 192 28.9
2010-04-23 14:21:46 51°29.729 2°52.858 188.1 14.8 191 31
2010-04-23 14:22:46 51°29.488 2°52.78 188.8 14.9 191 30.3
2010-04-23 14:23:46 51°29.245 2°52.697 188.2 15 192 28.4
2010-04-23 14:24:46 51°29.002 2°52.613 188.4 14.9 193 27.8
2010-04-23 14:25:46 51°28.757 2°52.527 188.3 15.1 193 28
2010-04-23 14:26:46 51°28.513 2°52.461 182.2 14.6 185 25.7
2010-04-23 14:27:46 51°28.267 2°52.415 182.6 14.8 184 22.8
2010-04-23 14:28:46 51°28.019 2°52.37 182.3 15.1 186 21.2
2010-04-23 14:29:46 51°27.768 2°52.324 182.9 15.4 186 20.4
2010-04-23 14:30:46 51°27.517 2°52.278 182.9 15.1 188 20.2
2010-04-23 14:31:46 51°27.266 2°52.231 183.4 15.1 187 20.3
2010-04-23 14:32:46 51°27.016 2°52.208 178.6 14.8 183 22.6
2010-04-23 14:33:46 51°26.766 2°52.188 179.3 15.1 184 26.9
2010-04-23 14:34:46 51°26.516 2°52.165 179.4 14.9 184 25.5
2010-04-23 14:35:46 51°26.267 2°52.135 179.4 14.8 185 25.7
2010-04-23 14:36:46 51°26.019 2°52.107 179.4 14.8 184 25.9
2010-04-23 14:37:46 51°25.771 2°52.077 179 14.8 184 26
2010-04-23 14:38:46 51°25.524 2°52.05 179.6 15 184 28.1
2010-04-23 14:39:46 51°25.276 2°52.025 179.6 14.8 184 24.7
2010-04-23 14:40:46 51°25.029 2°51.995 179.4 14.8 184 22.1
2010-04-23 14:41:46 51°24.78 2°51.963 180.1 14.9 184 21.2
2010-04-23 14:42:46 51°24.532 2°51.933 179.4 15.1 185 20.7
2010-04-23 14:43:46 51°24.285 2°51.906 179 14.9 184 19.2
2010-04-23 14:44:46 51°24.037 2°51.878 179.1 15.1 186 17.5
2010-04-23 14:45:46 51°23.79 2°51.849 179.4 14.9 184 15.3
2010-04-23 14:46:46 51°23.543 2°51.819 179.8 14.7 184 14.9
2010-04-23 14:47:46 51°23.293 2°51.792 179.1 14.8 184 16.1
2010-04-23 14:48:46 51°23.042 2°51.759 178.9 15.3 185 23
2010-04-23 14:49:46 51°22.79 2°51.724 178.9 15.2 185 22.4
2010-04-23 14:50:46 51°22.539 2°51.687 179.6 14.9 185 22.2
2010-04-23 14:51:46 51°22.294 2°51.648 179 14.5 184 23.3
2010-04-23 14:52:46 51°22.052 2°51.609 178.4 14.5 185 23.3
2010-04-23 14:53:47 51°21.806 2°51.574 179.2 14.5 186 23.8
2010-04-23 14:54:47 51°21.565 2°51.541 179.7 14.7 182 23.5
2010-04-23 14:55:47 51°21.321 2°51.509 179.4 14.7 186 21.7
2010-04-23 14:56:47 51°21.079 2°51.474 179.4 14.7 186 19.2
2010-04-23 14:57:47 51°20.834 2°51.455 173.9 14.7 181 17
2010-04-23 14:58:45 51°20.6 2°51.454 174.5 14.7 180 14.5
2010-04-23 14:59:46 51°20.353 2°51.459 173.9 14.7 179 13.4
2010-04-23 15:00:46 51°20.111 2°51.467 174.3 14.7 179 12.9
2010-04-23 15:01:46 51°19.868 2°51.471 174.4 14.6 180 14.2
2010-04-23 15:02:46 51°19.623 2°51.471 174.1 14.7 179 14.7
2010-04-23 15:03:46 51°19.378 2°51.475 171.4 14.7 177 14.9
2010-04-23 15:04:46 51°19.136 2°51.508 168.9 14.6 175 15
2010-04-23 15:05:46 51°18.894 2°51.545 169.1 14.7 173 14
2010-04-23 15:06:45 51°18.656 2°51.58 169.4 14.5 173 13.2
2010-04-23 15:07:46 51°18.412 2°51.619 169.3 14.4 175 12
2010-04-23 15:08:46 51°18.17 2°51.656 168.7 14.5 175 10.7
2010-04-23 15:09:46 51°17.929 2°51.696 169.8 14.6 175 10
2010-04-23 15:10:46 51°17.688 2°51.735 169.4 14.7 174 9.7
2010-04-23 15:11:46 51°17.445 2°51.779 168.9 14.7 172 10
2010-04-23 15:12:45 51°17.224 2°51.906 145.2 14.2 151 10.6
2010-04-23 15:13:45 51°17.025 2°52.111 141.6 14.4 147 10.7
2010-04-23 15:14:45 51°16.827 2°52.316 142.6 14.3 146 10.7
2010-04-23 15:15:45 51°16.627 2°52.516 143.1 14.1 149 11
2010-04-23 15:16:46 51°16.424 2°52.719 143.4 13.9 147 11.5
2010-04-23 15:17:46 51°16.223 2°52.911 144.2 14.1 150 11.6
2010-04-23 15:18:46 51°16.021 2°53.1 143.5 14 151 11.5
2010-04-23 15:19:46 51°15.797 2°53.22 159.3 14 164 11.2
2010-04-23 15:20:46 51°15.568 2°53.323 157.6 14.5 163 10.8
2010-04-23 15:21:46 51°15.343 2°53.437 155.5 14 161 9.9
2010-04-23 15:22:45 51°15.135 2°53.586 148.9 13.9 154 9.4
2010-04-23 15:23:45 51°14.924 2°53.743 148.7 14.1 155 9.1
2010-04-23 15:24:45 51°14.7 2°53.842 169.4 14.2 178 9.3
2010-04-23 15:25:47 51°14.456 2°53.788 193.7 14.4 199 9.4
2010-04-23 15:26:46 51°14.27 2°53.566 228.5 14.5 231 9.2
2010-04-23 15:27:46 51°14.127 2°53.251 235.6 14.7 235 9.5
2010-04-23 15:28:46 51°13.981 2°52.935 233.8 14.8 232 9.7
2010-04-23 15:29:46 51°13.849 2°52.603 241.8 14.9 239 9.7
2010-04-23 15:30:46 51°13.727 2°52.261 241.1 14.7 242 10
2010-04-23 15:31:45 51°13.617 2°51.962 239.6 11.2 238 10.3
2010-04-23 15:32:45 51°13.53 2°51.729 243.2 9.7 241 10.4
2010-04-23 15:33:45 51°13.469 2°51.554 229.6 4.7 226 10.5
2010-04-23 15:34:46 51°13.434 2°51.511 181.7 1.3 232 10.5
2010-04-23 15:35:49 51°13.43 2°51.48 176.7 1.2 250 4.7
2010-04-23 15:36:49 51°13.419 2°51.45 178.1 1.4 235 10.8
2010-04-23 15:37:48 51°13.404 2°51.421 177.9 1.5 222 10.6
2010-04-23 15:38:47 51°13.368 2°51.412 136.9 2.8 161 10.7
2010-04-23 15:39:46 51°13.351 2°51.478 66.3 4.5 68 10.6
2010-04-23 15:40:46 51°13.434 2°51.665 52.8 11.3 53 10.4
2010-04-23 15:41:45 51°13.542 2°51.933 58.9 12.4 60 10.3
2010-04-23 15:42:46 51°13.66 2°52.198 53.4 11.5 53 10.1
2010-04-23 15:43:46 51°13.758 2°52.411 53.5 8.5 55 10.2
2010-04-23 15:44:45 51°13.828 2°52.58 55.1 7.3 57 10.4
2010-04-23 15:45:46 51°13.891 2°52.733 54.9 6.5 57 10.2
2010-04-23 15:46:46 51°13.949 2°52.876 55 6.3 57 10.2
2010-04-23 15:47:45 51°14.005 2°53.014 55.7 6.3 57 10.2
2010-04-23 15:48:46 51°14.054 2°53.137 54.5 4.4 58 10.1
2010-04-23 15:49:46 51°14.083 2°53.22 55.5 3 64 10
2010-04-23 15:50:46 51°14.102 2°53.283 55.2 2.2 64 9.9
2010-04-23 15:51:46 51°14.114 2°53.325 52.2 1.4 66 9.9
2010-04-23 15:52:46 51°14.122 2°53.351 45.7 0.9 59 9.9
2010-04-23 15:53:46 51°14.129 2°53.367 41.3 0.6 59 9.9
2010-04-23 15:54:46 51°14.133 2°53.379 43.1 0.4 66 9.8
2010-04-23 15:55:46 51°14.134 2°53.39 46.5 0.4 81 9.7
2010-04-23 15:56:46 51°14.134 2°53.4 47.9 0.4 85 9.7
2010-04-23 15:57:46 51°14.133 2°53.412 50.8 0.4 96 9.8
2010-04-23 15:58:46 51°14.131 2°53.424 51.6 0.5 95 9.8
2010-04-23 15:59:46 51°14.137 2°53.454 53.4 2.7 61 9.6
2010-04-23 16:00:47 51°14.198 2°53.593 54.5 8.4 55 9.7
2010-04-23 16:01:46 51°14.28 2°53.798 58.9 10 59 9.4
2010-04-23 16:02:47 51°14.365 2°54.036 61.1 10.4 62 9.2
2010-04-23 16:03:46 51°14.451 2°54.277 58.3 11 57 9.5
2010-04-23 16:04:46 51°14.55 2°54.519 58.9 10.7 60 9.8
2010-04-23 16:05:46 51°14.57 2°54.801 95.3 11.7 100 11.9
2010-04-23 16:06:46 51°14.465 2°55.062 140.9 12.6 143 11.1
2010-04-23 16:07:47 51°14.289 2°55.253 147 11.9 147 10.3
2010-04-23 16:08:48 51°14.135 2°55.416 148.9 10 150 11.7
2010-04-23 16:09:49 51°13.997 2°55.518 156.2 7.6 156 10.9
2010-04-23 16:10:50 51°13.897 2°55.589 157.8 6.1 157 -999
2010-04-23 16:11:49 51°13.811 2°55.651 151.7 5.4 150 -999
2010-04-23 16:12:50 51°13.745 2°55.739 135 5 134 10.7
2010-04-23 16:13:51 51°13.693 2°55.839 123.7 4.5 126 -999
2010-04-23 16:14:50 51°13.667 2°55.932 105.3 3.2 108 -999
2010-04-23 16:15:50 51°13.661 2°55.96 112.3 0.4 81 -999